Latest Coastal Weather Observations for Tewantin

IDQ60701

Issued at 6:31 am EST Friday 30 January 2015 (issued every 10 minutes, with the page automatically refreshed every 10 minutes)

About coastal observations | Map of coastal stations | Coastal observations for QLD | Marine services | Other Formats
Station Details ID: 040908 Name: TEWANTIN RSL PARK Lat: -26.39 Lon: 153.04 Height: 6.4 m
Data from the previous 72 hours. | See also: Recent months at Tewantin
Date/Time
EST
Temp

°C
Wind Pressure Rain
since 9am
mm
Weather Cloud Vis
km
Sea
Height
m
Swell
Dir
 
Speed
knots
Gust
knots
hPa Trend Height
m
Period
s
Dir
30/06:30am 21.4 S 7 11 1009.3 - 0.0 - - - - - - -
30/06:00am 21.3 S 8 12 1009.1 - 0.0 - - - - - - -
30/05:30am 21.2 SSW 6 10 1008.7 - 0.0 - - - - - - -
30/05:00am 21.3 SSW 7 9 1008.3 - 0.0 - - - - - - -
30/04:30am 21.5 S 6 10 1008.2 - 0.0 - - - - - - -
30/04:00am 21.6 SSW 6 10 1008.2 - 0.0 - - - - - - -
30/03:30am 22.0 SSW 3 4 1008.0 - 0.0 - - - - - - -
30/03:00am 21.8 SSW 3 5 1007.9 - 0.0 - - - - - - -
30/02:30am 21.8 SSW 3 4 1008.0 - 0.0 - - - - - - -
30/02:00am 21.8 SW 4 5 1008.1 - 0.0 - - - - - - -
30/01:30am 22.4 SW 3 4 1008.3 - 0.0 - - - - - - -
30/01:00am 23.2 S 1 3 1008.6 - 0.0 - - - - - - -
30/12:30am 24.1 E 3 5 1009.0 - 0.0 - - - - - - -
30/12:00am 24.0 E 3 4 1009.1 - 0.0 - - - - - - -
 
Date/Time
EST
Temp

°C
Wind Pressure Rain
since 9am
mm
Weather Cloud Vis
km
Sea
Height
m
Swell
Dir
 
Speed
knots
Gust
knots
hPa Trend Height
m
Period
s
Dir
29/11:30pm 24.0 E 3 5 1009.2 - 0.0 - - - - - - -
29/11:00pm 24.7 ESE 6 7 1009.4 - 0.0 - - - - - - -
29/10:30pm 24.8 E 6 10 1009.6 - 0.0 - - - - - - -
29/10:00pm 24.9 ESE 6 10 1009.6 - 0.0 - - - - - - -
29/09:30pm 24.9 ESE 7 10 1009.5 - 0.0 - - - - - - -
29/09:00pm 25.0 ESE 5 9 1009.5 - 0.0 - - - - - - -
29/08:30pm 24.9 ESE 5 8 1009.2 - 0.0 - - - - - - -
29/08:00pm 25.0 ESE 7 9 1009.0 - 0.0 - - - - - - -
29/07:30pm 25.1 ESE 6 10 1008.8 - 0.0 - - - - - - -
29/07:00pm 25.2 ESE 8 11 1008.6 - 0.0 - - - - - - -
29/06:30pm 25.2 ESE 8 12 1008.2 - 0.0 - - - - - - -
29/06:00pm 25.4 ESE 9 13 1007.7 - 0.0 - - - - - - -
29/05:30pm 25.5 ESE 9 15 1007.2 - 0.0 - - - - - - -
29/05:00pm 25.4 SE 8 13 1007.1 - 0.0 - - - - - - -
29/04:30pm 25.6 SE 10 15 1006.9 - 0.0 - - - - - - -
29/04:00pm 25.6 SE 9 16 1006.8 - 0.0 - - - - - - -
29/03:30pm 25.4 SE 11 17 1007.0 - 0.0 - - - - - - -
29/03:00pm 26.5 SE 9 15 1006.9 - 0.0 - - - - - - -
29/02:30pm 25.7 SE 11 19 1007.0 - 0.0 - - - - - - -
29/02:00pm 26.6 SE 10 16 1007.2 - 0.0 - - - - - - -
29/01:30pm 27.1 SE 9 15 1007.3 - 0.0 - - - - - - -
29/01:00pm 26.5 SSE 9 16 1007.5 - 0.0 - - - - - - -
29/12:30pm 26.1 SSE 10 18 1007.8 - 0.0 - - - - - - -
29/12:00pm 26.5 SE 10 17 1007.9 - 0.0 - - - - - - -
29/11:30am 26.4 SSE 11 18 1008.0 - 0.0 - - - - - - -
29/11:00am 26.0 SSE 9 18 1008.3 - 0.0 - - - - - - -
29/10:30am 25.6 SSE 9 14 1008.5 - 0.0 - - - - - - -
29/10:00am 25.1 S 10 15 1008.7 - 0.0 - - - - - - -
29/09:30am 24.1 S 11 17 1008.7 - 0.0 - - - - - - -
29/09:00am 23.7 S 10 16 1008.3 - 0.2 - - - - - - -
29/08:30am 23.5 S 10 17 1008.1 - 0.2 - - - - - - -
29/08:00am 23.1 S 10 15 1008.1 - 0.2 - - - - - - -
29/07:30am 22.5 S 8 14 1008.0 - 0.2 - - - - - - -
29/07:00am 22.5 S 8 12 1007.7 - 0.2 - - - - - - -
29/06:30am 22.0 S 7 10 1007.4 - 0.2 - - - - - - -
29/06:00am 21.9 S 8 11 1007.0 - 0.2 - - - - - - -
29/05:30am 22.0 SSW 7 11 1007.2 - 0.2 - - - - - - -
29/05:00am 22.0 S 7 11 1006.5 - 0.2 - - - - - - -
29/04:30am 22.2 S 8 13 1006.2 - 0.2 - - - - - - -
29/04:00am 22.1 S 8 13 1006.1 - 0.2 - - - - - - -
29/03:30am 22.2 S 9 13 1006.1 - 0.2 - - - - - - -
29/03:00am 22.3 S 8 12 1005.8 - 0.2 - - - - - - -
29/02:30am 22.2 S 8 11 1006.2 - 0.2 - - - - - - -
29/02:00am 22.3 SSW 6 13 1006.4 - 0.2 - - - - - - -
29/01:30am 22.4 S 8 11 1006.3 - 0.2 - - - - - - -
29/01:00am 22.6 S 7 11 1006.6 - 0.2 - - - - - - -
29/12:30am 22.7 S 7 11 1006.8 - 0.2 - - - - - - -
29/12:00am 22.9 S 9 14 1006.9 - 0.2 - - - - - - -
 
Date/Time
EST
Temp

°C
Wind Pressure Rain
since 9am
mm
Weather Cloud Vis
km
Sea
Height
m
Swell
Dir
 
Speed
knots
Gust
knots
hPa Trend Height
m
Period
s
Dir
28/11:30pm 23.0 S 9 15 1007.2 - 0.2 - - - - - - -
28/11:00pm 23.2 S 7 12 1007.5 - 0.2 - - - - - - -
28/10:30pm 23.2 S 9 14 1007.3 - 0.2 - - - - - - -
28/10:00pm 23.3 S 8 12 1007.3 - 0.2 - - - - - - -
28/09:30pm 23.3 S 8 13 1007.1 - 0.2 - - - - - - -
28/09:00pm 23.2 S 7 10 1007.2 - 0.2 - - - - - - -
28/08:30pm 22.7 SSE 6 12 1007.1 - 0.2 - - - - - - -
28/08:00pm 23.6 S 7 13 1006.7 - 0.2 - - - - - - -
28/07:30pm 23.7 S 8 13 1006.6 - 0.2 - - - - - - -
28/07:00pm 23.6 S 7 10 1006.6 - 0.2 - - - - - - -
28/06:30pm 23.9 S 7 11 1006.4 - 0.2 - - - - - - -
28/06:00pm 24.3 S 10 16 1005.8 - 0.2 - - - - - - -
28/05:30pm 24.2 SSE 7 14 1005.6 - 0.2 - - - - - - -
28/05:00pm 24.4 SE 9 15 1005.3 - 0.2 - - - - - - -
28/04:30pm 24.6 SE 9 18 1005.0 - 0.2 - - - - - - -
28/04:00pm 24.0 SSE 7 13 1004.8 - 0.2 - - - - - - -
28/03:30pm 23.8 SSE 8 13 1005.1 - 0.2 - - - - - - -
28/03:00pm 23.7 S 8 12 1005.2 - 0.0 - - - - - - -
28/02:30pm 24.3 S 8 13 1005.3 - 0.0 - - - - - - -
28/02:00pm 23.9 SSE 9 14 1005.2 - 0.0 - - - - - - -
28/01:30pm 23.9 S 9 15 1005.2 - 0.0 - - - - - - -
28/01:00pm 23.5 S 8 13 1005.7 - 0.0 - - - - - - -
28/12:30pm 23.8 S 8 15 1005.8 - 0.0 - - - - - - -
28/12:00pm 24.7 S 9 13 1005.6 - 0.0 - - - - - - -
28/11:30am 24.9 S 8 14 1005.8 - 0.0 - - - - - - -
28/11:00am 25.5 S 7 11 1006.0 - 0.0 - - - - - - -
28/10:30am 24.7 S 11 15 1006.2 - 0.0 - - - - - - -
28/10:00am 25.3 S 9 14 1005.9 - 0.0 - - - - - - -
28/09:30am 25.3 S 9 17 1005.7 - 0.0 - - - - - - -
28/09:00am 24.5 S 8 12 1005.7 - 3.0 - - - - - - -
28/08:30am 23.4 S 9 14 1005.3 - 3.0 - - - - - - -
28/08:00am 22.3 S 9 14 1005.4 - 3.0 - - - - - - -
28/07:30am 21.7 S 8 13 1005.3 - 3.0 - - - - - - -
28/07:00am 21.9 S 7 11 1005.2 - 3.0 - - - - - - -
28/06:30am 21.8 S 7 12 1005.1 - 3.0 - - - - - - -
28/06:00am 21.9 S 7 10 1004.7 - 3.0 - - - - - - -
28/05:30am 22.0 S 8 11 1004.3 - 3.0 - - - - - - -
28/05:00am 22.1 S 8 12 1004.3 - 3.0 - - - - - - -
28/04:30am 22.4 S 7 11 1004.4 - 3.0 - - - - - - -
28/04:00am 22.6 S 7 11 1004.3 - 2.8 - - - - - - -
28/03:30am 22.5 S 6 8 1004.3 - 2.8 - - - - - - -
28/03:00am 22.5 SSW 5 9 1004.3 - 2.8 Recent precip. - - - - - -
28/02:30am 22.6 S 6 10 1004.5 - 2.8 - - - - - - -
28/02:00am 22.8 S 5 8 1005.0 - 1.8 - - - - - - -
28/01:30am 23.2 SSW 5 7 1005.3 - 1.0 - - - - - - -
28/01:00am 23.9 SSE 5 8 1005.7 - 0.4 - - - - - - -
28/12:30am 25.2 SE 6 11 1005.9 - 0.0 - - - - - - -
28/12:00am 25.6 SE 7 10 1006.0 - 0.0 - - - - - - -
 
Date/Time
EST
Temp

°C
Wind Pressure Rain
since 9am
mm
Weather Cloud Vis
km
Sea
Height
m
Swell
Dir
 
Speed
knots
Gust
knots
hPa Trend Height
m
Period
s
Dir
27/11:30pm 25.7 ESE 7 12 1006.0 - 0.0 - - - - - - -
27/11:00pm 25.9 SE 7 13 1006.2 - 0.0 - - - - - - -
27/10:30pm 26.0 ESE 9 14 1006.3 - 0.0 - - - - - - -
27/10:00pm 26.0 ESE 8 14 1006.4 - 0.0 - - - - - - -
27/09:30pm 26.2 ESE 9 15 1006.4 - 0.0 - - - - - - -
27/09:00pm 26.2 ESE 8 12 1006.4 - 0.0 - - - - - - -
27/08:30pm 26.2 ESE 9 12 1006.3 - 0.0 - - - - - - -
27/08:00pm 26.3 ESE 8 13 1006.2 - 0.0 - - - - - - -
27/07:30pm 26.4 ESE 7 12 1005.7 - 0.0 - - - - - - -
27/07:00pm 26.4 ESE 8 14 1005.3 - 0.0 - - - - - - -
27/06:30pm 26.5 ESE 8 13 1005.3 - 0.0 - - - - - - -
27/06:00pm 26.6 ESE 9 15 1005.0 - 0.0 - - - - - - -
27/05:30pm 26.8 ESE 9 16 1004.5 - 0.0 - - - - - - -
27/05:00pm 26.9 ESE 11 15 1004.5 - 0.0 - - - - - - -
27/04:30pm 27.2 ESE 12 17 1004.2 - 0.0 - - - - - - -
27/04:00pm 27.2 ESE 11 17 1004.5 - 0.0 - - - - - - -
27/03:30pm 27.1 ESE 10 15 1004.6 - 0.0 - - - - - - -
27/03:00pm 27.6 ESE 10 15 1004.7 - 0.0 - - - - - - -
27/02:30pm 27.7 ESE 8 13 1005.2 - 0.0 - - - - - - -
27/02:00pm 26.6 SE 8 13 1005.6 - 0.0 - - - - - - -
27/01:30pm 27.2 ESE 11 17 1005.9 - 0.0 - - - - - - -
27/01:00pm 27.9 ESE 11 16 1006.1 - 0.0 - - - - - - -
27/12:30pm 27.9 SE 10 16 1006.3 - 0.0 - - - - - - -
27/12:00pm 28.6 SE 10 17 1006.6 - 0.0 - - - - - - -
27/11:30am 28.7 ESE 11 15 1007.0 - 0.0 - - - - - - -
27/11:00am 29.0 ESE 9 13 1007.2 - 0.0 - - - - - - -
27/10:30am 28.9 ESE 9 13 1007.6 - 0.0 - - - - - - -
27/10:00am 28.5 ESE 9 15 1007.6 - 0.0 - - - - - - -
27/09:30am 28.3 SE 8 12 1007.7 - 0.0 - - - - - - -
27/09:00am 27.9 ESE 10 16 1007.4 - 0.0 - - - - - - -
27/08:30am 27.9 E 10 17 1007.0 - 0.0 - - - - - - -
27/08:00am 27.8 E 10 15 1006.9 - 0.0 - - - - - - -
27/07:30am 27.4 ESE 9 13 1006.8 - 0.0 - - - - - - -
27/07:00am 26.6 ESE 7 11 1006.8 - 0.0 - - - - - - -

Other Formats:

Comma delimited format used in spreadsheet applications
http://www.bom.gov.au/fwo/IDQ60701/IDQ60701.94570.axf

JavaScript Object Notation format (JSON) in row-major order
http://www.bom.gov.au/fwo/IDQ60701/IDQ60701.94570.json